createdAt,value
2019-05-29T00:00:54.420Z,13.59
2019-05-29T00:01:54.377Z,13.62
2019-05-29T00:02:54.364Z,13.57
2019-05-29T00:03:54.361Z,13.62
2019-05-29T00:04:54.342Z,13.60
2019-05-29T00:05:54.339Z,13.62
2019-05-29T00:06:54.320Z,13.66
2019-05-29T00:07:54.323Z,13.63
2019-05-29T00:08:54.309Z,13.64
2019-05-29T00:09:54.342Z,13.57
2019-05-29T00:10:54.302Z,13.55
2019-05-29T00:11:54.257Z,13.69
2019-05-29T00:12:54.254Z,13.59
2019-05-29T00:13:54.247Z,13.67
2019-05-29T00:14:54.225Z,13.59
2019-05-29T00:15:54.226Z,13.54
2019-05-29T00:16:54.209Z,13.62
2019-05-29T00:17:54.201Z,13.66
2019-05-29T00:18:57.612Z,13.66
2019-05-29T00:19:54.176Z,13.60
2019-05-29T00:20:54.177Z,13.62
2019-05-29T00:21:54.152Z,13.62
2019-05-29T00:22:54.143Z,13.62
2019-05-29T00:23:54.135Z,13.69
2019-05-29T00:24:54.121Z,13.67
2019-05-29T00:25:54.119Z,13.60
2019-05-29T00:26:54.097Z,13.64
2019-05-29T00:27:54.089Z,13.63
2019-05-29T00:28:54.077Z,13.59
2019-05-29T00:29:54.062Z,13.57
2019-05-29T00:30:54.062Z,13.60
2019-05-29T00:31:54.056Z,13.57
2019-05-29T00:32:54.031Z,13.62
2019-05-29T00:33:54.049Z,13.60
2019-05-29T00:34:54.040Z,13.63
2019-05-29T00:35:54.010Z,13.54
2019-05-29T00:36:53.987Z,13.60
2019-05-29T00:37:53.971Z,13.60
2019-05-29T00:38:53.964Z,13.57
2019-05-29T00:39:53.954Z,13.59
2019-05-29T00:40:53.956Z,13.51
2019-05-29T00:41:53.976Z,13.59
2019-05-29T00:42:53.926Z,13.63
2019-05-29T00:43:53.913Z,13.54
2019-05-29T00:44:53.903Z,13.57
2019-05-29T00:45:53.895Z,13.59
2019-05-29T00:46:53.898Z,13.57
2019-05-29T00:47:53.870Z,13.59
2019-05-29T00:48:53.952Z,13.55
2019-05-29T00:49:53.899Z,13.57
2019-05-29T00:50:53.963Z,13.54
2019-05-29T00:51:53.906Z,13.49
2019-05-29T00:52:53.923Z,13.46
2019-05-29T00:53:53.829Z,13.48
2019-05-29T00:54:53.871Z,13.52
2019-05-29T00:55:54.037Z,13.48
2019-05-29T00:56:53.765Z,13.45
2019-05-29T00:57:53.748Z,13.48
2019-05-29T00:58:53.744Z,13.52
2019-05-29T00:59:53.729Z,13.54
2019-05-29T01:00:53.720Z,13.54
2019-05-29T01:01:53.720Z,13.52
2019-05-29T01:02:53.746Z,13.55
2019-05-29T01:03:53.690Z,13.55
2019-05-29T01:04:53.678Z,13.52
2019-05-29T01:05:53.661Z,13.45
2019-05-29T01:06:53.674Z,13.45
2019-05-29T01:07:53.655Z,13.42
2019-05-29T01:08:53.629Z,13.42
2019-05-29T01:09:53.619Z,13.41
2019-05-29T01:10:53.609Z,13.41
2019-05-29T01:11:53.604Z,13.36
2019-05-29T01:12:53.649Z,13.41
2019-05-29T01:13:53.571Z,13.45
2019-05-29T01:14:53.619Z,13.41
2019-05-29T01:15:53.592Z,13.39
2019-05-29T01:16:53.554Z,13.33
2019-05-29T01:17:53.527Z,13.41
2019-05-29T01:18:53.525Z,13.42
2019-05-29T01:19:53.522Z,13.42
2019-05-29T01:20:53.498Z,13.41
2019-05-29T01:21:53.545Z,13.38
2019-05-29T01:22:53.489Z,13.46
2019-05-29T01:23:53.466Z,13.39
2019-05-29T01:24:53.488Z,13.44
2019-05-29T01:25:53.450Z,13.46
2019-05-29T01:26:53.439Z,13.38
2019-05-29T01:27:53.427Z,13.30
2019-05-29T01:28:53.415Z,13.28
2019-05-29T01:29:53.401Z,13.32
2019-05-29T01:30:53.401Z,13.28
2019-05-29T01:31:53.394Z,13.22
2019-05-29T01:32:53.371Z,13.15
2019-05-29T01:33:53.351Z,13.14
2019-05-29T01:34:53.346Z,13.08
2019-05-29T01:35:53.334Z,13.08
2019-05-29T01:36:53.335Z,13.12
2019-05-29T01:37:53.315Z,13.00
2019-05-29T01:38:53.298Z,12.95
2019-05-29T01:39:53.288Z,12.95
2019-05-29T01:40:53.277Z,12.97
2019-05-29T01:41:53.285Z,12.95
2019-05-29T01:42:53.259Z,12.97
2019-05-29T01:43:53.239Z,13.00
2019-05-29T01:45:06.338Z,13.01
2019-05-29T01:45:54.224Z,12.93
2019-05-29T01:46:53.223Z,13.01
2019-05-29T01:47:53.204Z,12.95
2019-05-29T01:48:53.190Z,12.89
2019-05-29T01:49:53.181Z,12.90
2019-05-29T01:50:53.175Z,12.89
2019-05-29T01:51:53.159Z,12.87
2019-05-29T01:52:53.151Z,12.89
2019-05-29T01:53:53.138Z,12.86
2019-05-29T01:54:53.134Z,12.79
2019-05-29T01:55:53.113Z,12.79
2019-05-29T01:56:53.108Z,12.85
2019-05-29T01:57:53.087Z,12.86
2019-05-29T01:58:53.081Z,12.83
2019-05-29T01:59:53.071Z,12.77
2019-05-29T02:00:53.061Z,12.82
2019-05-29T02:01:53.058Z,12.85
2019-05-29T02:02:53.038Z,12.86
2019-05-29T02:03:53.030Z,12.90
2019-05-29T02:04:53.018Z,12.85
2019-05-29T02:05:53.012Z,12.78
2019-05-29T02:06:53.000Z,12.77
2019-05-29T02:07:52.982Z,12.77
2019-05-29T02:08:52.969Z,12.77
2019-05-29T02:09:52.961Z,12.79
2019-05-29T02:10:52.943Z,12.72
2019-05-29T02:11:52.951Z,12.82
2019-05-29T02:12:52.931Z,12.77
2019-05-29T02:13:52.911Z,12.77
2019-05-29T02:14:52.904Z,12.65
2019-05-29T02:15:52.888Z,12.72
2019-05-29T02:16:52.900Z,12.64
2019-05-29T02:17:52.878Z,12.72
2019-05-29T02:18:52.860Z,12.77
2019-05-29T02:19:52.870Z,12.70
2019-05-29T02:20:52.842Z,12.79
2019-05-29T02:21:52.829Z,12.85
2019-05-29T02:22:52.821Z,12.75
2019-05-29T02:23:52.807Z,12.83
2019-05-29T02:24:52.806Z,12.90
2019-05-29T02:25:52.790Z,12.85
2019-05-29T02:26:52.776Z,12.82
2019-05-29T02:27:52.766Z,12.78
2019-05-29T02:28:52.759Z,12.85
2019-05-29T02:29:52.746Z,12.77
2019-05-29T02:30:52.732Z,12.78
2019-05-29T02:31:52.715Z,12.79
2019-05-29T02:32:52.716Z,12.75
2019-05-29T02:33:52.700Z,12.74
2019-05-29T02:34:52.693Z,12.70
2019-05-29T02:35:52.679Z,12.68
2019-05-29T02:36:52.674Z,12.67
2019-05-29T02:37:52.670Z,12.64
2019-05-29T02:38:52.643Z,12.64
2019-05-29T02:39:52.631Z,12.62
2019-05-29T02:40:52.638Z,12.59
2019-05-29T02:41:52.603Z,12.52
2019-05-29T02:42:52.602Z,12.59
2019-05-29T02:43:52.590Z,12.56
2019-05-29T02:44:52.571Z,12.53
2019-05-29T02:45:54.801Z,12.54
2019-05-29T02:46:52.556Z,12.52
2019-05-29T02:47:52.559Z,12.52
2019-05-29T02:48:52.533Z,12.54
2019-05-29T02:49:52.529Z,12.65
2019-05-29T02:50:52.546Z,12.60
2019-05-29T02:51:52.498Z,12.65
2019-05-29T02:52:52.495Z,12.67
2019-05-29T02:53:52.480Z,12.71
2019-05-29T02:54:52.476Z,12.67
2019-05-29T02:55:52.458Z,12.64
2019-05-29T02:56:52.445Z,12.65
2019-05-29T02:57:52.437Z,12.67
2019-05-29T02:58:52.434Z,12.68
2019-05-29T02:59:52.418Z,12.67
2019-05-29T03:00:52.395Z,12.62
2019-05-29T03:01:52.399Z,12.64
2019-05-29T03:02:52.404Z,12.64
2019-05-29T03:03:52.367Z,12.56
2019-05-29T03:04:52.359Z,12.54
2019-05-29T03:05:52.339Z,12.56
2019-05-29T03:06:52.329Z,12.52
2019-05-29T03:07:52.341Z,12.56
2019-05-29T03:08:52.307Z,12.53
2019-05-29T03:09:52.305Z,12.54
2019-05-29T03:10:52.290Z,12.60
2019-05-29T03:11:52.282Z,12.50
2019-05-29T03:12:52.286Z,12.54
2019-05-29T03:13:52.256Z,12.50
2019-05-29T03:14:52.248Z,12.52
2019-05-29T03:16:08.501Z,12.50
2019-05-29T03:16:53.243Z,12.45
2019-05-29T03:17:52.234Z,12.54
2019-05-29T03:18:52.201Z,12.54
2019-05-29T03:19:52.187Z,12.59
2019-05-29T03:20:52.186Z,12.50
2019-05-29T03:21:52.177Z,12.52
2019-05-29T03:22:52.168Z,12.45
2019-05-29T03:23:52.163Z,12.52
2019-05-29T03:24:52.137Z,12.46
2019-05-29T03:25:52.120Z,12.54
2019-05-29T03:26:52.114Z,12.42
2019-05-29T03:27:52.114Z,12.47
2019-05-29T03:28:52.105Z,12.49
2019-05-29T03:29:52.080Z,12.45
2019-05-29T03:30:52.069Z,12.38
2019-05-29T03:31:52.060Z,12.39
2019-05-29T03:32:52.046Z,12.42
2019-05-29T03:33:52.041Z,12.32
2019-05-29T03:34:52.027Z,12.32
2019-05-29T03:35:52.010Z,12.24
2019-05-29T03:36:51.999Z,12.34
2019-05-29T03:37:51.992Z,12.41
2019-05-29T03:38:51.992Z,12.35
2019-05-29T03:39:51.978Z,12.37
2019-05-29T03:40:51.968Z,12.38
2019-05-29T03:41:51.949Z,12.35
2019-05-29T03:42:51.945Z,12.45
2019-05-29T03:43:51.937Z,12.28
2019-05-29T03:44:51.917Z,12.21
2019-05-29T03:45:51.914Z,12.28
2019-05-29T03:46:51.924Z,12.28
2019-05-29T03:47:51.886Z,12.24
2019-05-29T03:48:51.877Z,12.31
2019-05-29T03:49:51.863Z,12.29
2019-05-29T03:50:51.852Z,12.27
2019-05-29T03:51:51.834Z,12.28
2019-05-29T03:52:51.829Z,12.31
2019-05-29T03:53:51.835Z,12.34
2019-05-29T03:54:51.803Z,12.34
2019-05-29T03:55:51.794Z,12.35
2019-05-29T03:56:51.788Z,12.21
2019-05-29T03:57:51.769Z,12.21
2019-05-29T03:58:51.782Z,12.19
2019-05-29T03:59:51.754Z,12.20
2019-05-29T04:00:51.765Z,12.21
2019-05-29T04:01:51.737Z,12.27
2019-05-29T04:02:51.726Z,12.34
2019-05-29T04:03:51.720Z,12.32
2019-05-29T04:04:51.691Z,12.34
2019-05-29T04:05:51.681Z,12.32
2019-05-29T04:06:51.678Z,12.29
2019-05-29T04:07:51.680Z,12.21
2019-05-29T04:08:51.692Z,12.19
2019-05-29T04:09:51.644Z,12.21
2019-05-29T04:10:51.632Z,12.12
2019-05-29T04:11:51.621Z,12.10
2019-05-29T04:12:51.610Z,11.98
2019-05-29T04:13:51.618Z,11.95
2019-05-29T04:14:51.588Z,11.98
2019-05-29T04:15:51.577Z,11.90
2019-05-29T04:16:59.828Z,12.07
2019-05-29T04:17:52.550Z,12.02
2019-05-29T04:18:51.551Z,11.95
2019-05-29T04:19:51.530Z,12.04
2019-05-29T04:20:51.520Z,12.07
2019-05-29T04:21:51.512Z,12.16
2019-05-29T04:22:51.502Z,12.10
2019-05-29T04:23:51.498Z,12.24
2019-05-29T04:24:51.473Z,12.23
2019-05-29T04:25:51.478Z,12.29
2019-05-29T04:26:51.460Z,12.20
2019-05-29T04:27:51.448Z,12.20
2019-05-29T04:28:51.441Z,12.29
2019-05-29T04:29:51.420Z,12.23
2019-05-29T04:30:51.408Z,12.32
2019-05-29T04:31:51.396Z,12.35
2019-05-29T04:32:51.396Z,12.39
2019-05-29T04:33:51.395Z,12.37
2019-05-29T04:34:51.370Z,12.32
2019-05-29T04:35:51.368Z,12.23
2019-05-29T04:36:51.361Z,12.29
2019-05-29T04:37:51.336Z,12.24
2019-05-29T04:38:51.333Z,12.38
2019-05-29T04:39:51.331Z,12.35
2019-05-29T04:40:51.316Z,12.39
2019-05-29T04:41:51.287Z,12.37
2019-05-29T04:42:51.276Z,12.34
2019-05-29T04:43:51.268Z,12.32
2019-05-29T04:44:51.271Z,12.39
2019-05-29T04:45:51.247Z,12.35
2019-05-29T04:47:07.096Z,12.42
2019-05-29T04:47:52.218Z,12.35
2019-05-29T04:48:51.212Z,12.41
2019-05-29T04:49:51.206Z,12.41
2019-05-29T04:50:51.195Z,12.41
2019-05-29T04:51:51.214Z,12.41
2019-05-29T04:52:51.168Z,12.45
2019-05-29T04:53:51.156Z,12.45
2019-05-29T04:54:51.157Z,12.41
2019-05-29T04:55:51.141Z,12.46
2019-05-29T04:56:51.143Z,12.46
2019-05-29T04:57:51.140Z,12.50
2019-05-29T04:58:51.102Z,12.56
2019-05-29T04:59:51.104Z,12.46
2019-05-29T05:00:59.163Z,12.54
2019-05-29T05:01:52.079Z,12.59
2019-05-29T05:02:51.060Z,12.64
2019-05-29T05:03:51.051Z,12.59
2019-05-29T05:04:51.071Z,12.56
2019-05-29T05:05:51.022Z,12.60
2019-05-29T05:06:51.009Z,12.64
2019-05-29T05:07:51.053Z,12.68
2019-05-29T05:08:50.995Z,12.65
2019-05-29T05:09:51.007Z,12.67
2019-05-29T05:10:50.980Z,12.71
2019-05-29T05:11:50.953Z,12.70
2019-05-29T05:12:50.959Z,12.70
2019-05-29T05:13:50.931Z,12.71
2019-05-29T05:14:50.932Z,12.74
2019-05-29T05:15:50.912Z,12.77
2019-05-29T05:16:50.903Z,12.79
2019-05-29T05:17:50.890Z,12.89
2019-05-29T05:18:50.877Z,12.87
2019-05-29T05:19:50.882Z,12.92
2019-05-29T05:20:50.894Z,12.96
2019-05-29T05:21:50.846Z,12.92
2019-05-29T05:22:50.837Z,12.95
2019-05-29T05:23:50.889Z,12.93
2019-05-29T05:24:50.828Z,13.00
2019-05-29T05:25:50.803Z,13.07
2019-05-29T05:26:50.814Z,13.08
2019-05-29T05:27:50.779Z,13.11
2019-05-29T05:28:50.783Z,13.22
2019-05-29T05:29:50.767Z,13.19
2019-05-29T05:30:50.742Z,13.19
2019-05-29T05:31:50.739Z,13.14
2019-05-29T05:32:50.717Z,13.12
2019-05-29T05:33:50.723Z,13.14
2019-05-29T05:34:50.739Z,13.14
2019-05-29T05:35:50.696Z,13.20
2019-05-29T05:36:50.673Z,13.20
2019-05-29T05:37:50.663Z,13.25
2019-05-29T05:38:50.663Z,13.22
2019-05-29T05:39:50.644Z,13.11
2019-05-29T05:40:50.645Z,13.08
2019-05-29T05:41:50.628Z,13.15
2019-05-29T05:42:50.619Z,13.10
2019-05-29T05:43:50.596Z,13.01
2019-05-29T05:44:50.584Z,12.90
2019-05-29T05:45:50.654Z,12.85
2019-05-29T05:46:50.560Z,12.79
2019-05-29T05:47:57.328Z,12.85
2019-05-29T05:48:51.543Z,12.90
2019-05-29T05:49:50.536Z,12.89
2019-05-29T05:50:50.533Z,12.93
2019-05-29T05:51:50.515Z,12.97
2019-05-29T05:52:50.494Z,12.96
2019-05-29T05:53:50.482Z,13.05
2019-05-29T05:54:50.472Z,13.07
2019-05-29T05:55:50.504Z,13.05
2019-05-29T05:56:53.445Z,13.23
2019-05-29T05:57:50.446Z,13.23
2019-05-29T05:58:50.429Z,13.23
2019-05-29T05:59:50.420Z,13.33
2019-05-29T06:00:50.417Z,13.29
2019-05-29T06:01:50.398Z,13.44
2019-05-29T06:02:52.252Z,13.45
2019-05-29T06:03:50.378Z,13.54
2019-05-29T06:04:50.361Z,13.57
2019-05-29T06:05:50.362Z,13.57
2019-05-29T06:06:50.338Z,13.62
2019-05-29T06:07:50.353Z,13.70
2019-05-29T06:08:50.322Z,13.64
2019-05-29T06:09:50.316Z,13.59
2019-05-29T06:10:51.293Z,13.64
2019-05-29T06:11:50.287Z,13.64
2019-05-29T06:12:50.280Z,13.60
2019-05-29T06:13:50.269Z,13.52
2019-05-29T06:14:50.258Z,13.52
2019-05-29T06:15:50.249Z,13.52
2019-05-29T06:16:50.246Z,13.48
2019-05-29T06:18:10.210Z,13.46
2019-05-29T06:18:51.202Z,13.46
2019-05-29T06:19:50.200Z,13.52
2019-05-29T06:20:50.197Z,13.44
2019-05-29T06:21:50.187Z,13.45
2019-05-29T06:22:50.174Z,13.44
2019-05-29T06:23:50.161Z,13.45
2019-05-29T06:24:50.137Z,13.44
2019-05-29T06:25:50.134Z,13.42
2019-05-29T06:26:50.120Z,13.46
2019-05-29T06:27:50.103Z,13.39
2019-05-29T06:28:50.093Z,13.41
2019-05-29T06:29:50.081Z,13.36
2019-05-29T06:30:50.091Z,13.30
2019-05-29T06:31:50.074Z,13.19
2019-05-29T06:32:50.061Z,13.14
2019-05-29T06:33:50.047Z,13.19
2019-05-29T06:34:50.025Z,12.97
2019-05-29T06:35:50.012Z,12.93
2019-05-29T06:36:50.014Z,12.89
2019-05-29T06:37:50.013Z,12.90
2019-05-29T06:38:49.980Z,12.93
2019-05-29T06:39:49.977Z,12.96
2019-05-29T06:40:49.962Z,12.95
2019-05-29T06:41:49.961Z,12.95
2019-05-29T06:42:49.937Z,12.96
2019-05-29T06:43:49.939Z,13.03
2019-05-29T06:44:50.181Z,13.08
2019-05-29T06:45:49.903Z,13.07
2019-05-29T06:46:49.914Z,13.17
2019-05-29T06:47:49.878Z,13.12
2019-05-29T06:48:59.545Z,13.28
2019-05-29T06:49:50.860Z,13.28
2019-05-29T06:50:49.846Z,13.41
2019-05-29T06:51:49.849Z,13.33
2019-05-29T06:52:49.829Z,13.44
2019-05-29T06:53:49.817Z,13.45
2019-05-29T06:54:49.804Z,13.49
2019-05-29T06:55:54.025Z,13.57
2019-05-29T06:56:50.808Z,13.49
2019-05-29T06:57:49.767Z,13.54
2019-05-29T06:58:49.755Z,13.57
2019-05-29T06:59:49.753Z,13.64
2019-05-29T07:00:49.739Z,13.67
2019-05-29T07:01:49.733Z,13.75
2019-05-29T07:02:49.713Z,13.78
2019-05-29T07:03:49.717Z,13.85
2019-05-29T07:04:49.690Z,13.92
2019-05-29T07:05:51.289Z,13.88
2019-05-29T07:06:49.693Z,14.06
2019-05-29T07:07:49.664Z,14.14
2019-05-29T07:08:50.281Z,14.25
2019-05-29T07:09:49.633Z,14.21
2019-05-29T07:10:49.631Z,14.22
2019-05-29T07:11:49.631Z,14.17
2019-05-29T07:12:49.629Z,14.17
2019-05-29T07:13:50.519Z,14.17
2019-05-29T07:14:49.579Z,14.12
2019-05-29T07:15:49.569Z,14.12
2019-05-29T07:16:56.014Z,14.14
2019-05-29T07:17:50.568Z,14.24
2019-05-29T07:19:23.967Z,14.24
2019-05-29T07:20:02.839Z,14.18
2019-05-29T07:20:50.508Z,14.20
2019-05-29T07:21:49.512Z,14.25
2019-05-29T07:22:49.505Z,14.35
2019-05-29T07:23:49.486Z,14.28
2019-05-29T07:24:49.467Z,14.36
2019-05-29T07:25:49.457Z,14.21
2019-05-29T07:26:49.469Z,14.28
2019-05-29T07:27:49.440Z,14.29
2019-05-29T07:29:07.624Z,14.33
2019-05-29T07:29:50.416Z,14.33
2019-05-29T07:31:00.208Z,14.43
2019-05-29T07:31:50.414Z,14.45
2019-05-29T07:32:56.939Z,14.50
2019-05-29T07:33:50.368Z,14.64
2019-05-29T07:35:02.293Z,14.55
2019-05-29T07:35:50.352Z,14.64
2019-05-29T07:36:49.359Z,14.62
2019-05-29T07:37:49.332Z,14.70
2019-05-29T07:39:02.191Z,14.69
2019-05-29T07:39:50.308Z,14.57
2019-05-29T07:40:50.150Z,14.73
2019-05-29T07:41:49.299Z,14.69
2019-05-29T07:42:55.058Z,14.68
2019-05-29T07:43:49.270Z,14.68
2019-05-29T07:44:49.255Z,14.69
2019-05-29T07:45:49.244Z,14.64
2019-05-29T07:46:49.367Z,14.65
2019-05-29T07:47:49.217Z,14.60
2019-05-29T07:48:50.395Z,14.68
2019-05-29T07:49:50.339Z,14.58
2019-05-29T07:50:49.190Z,14.68
2019-05-29T07:51:49.192Z,14.72
2019-05-29T07:52:49.396Z,14.73
2019-05-29T07:53:49.165Z,14.86
2019-05-29T07:54:49.956Z,14.69
2019-05-29T07:55:49.238Z,14.58
2019-05-29T07:56:49.116Z,14.51
2019-05-29T07:57:49.116Z,14.51
2019-05-29T07:59:01.771Z,14.42
2019-05-29T07:59:50.089Z,14.46
2019-05-29T08:01:09.898Z,14.45
2019-05-29T08:01:49.320Z,14.50
2019-05-29T08:02:49.515Z,14.50
2019-05-29T08:03:49.725Z,14.46
2019-05-29T08:04:49.784Z,14.43
2019-05-29T08:05:51.445Z,14.52
2019-05-29T08:06:54.217Z,14.51
2019-05-29T08:07:50.022Z,14.55
2019-05-29T08:08:49.574Z,14.58
2019-05-29T08:09:49.835Z,14.65
2019-05-29T08:10:49.763Z,14.75
2019-05-29T08:11:50.144Z,14.78
2019-05-29T08:12:54.260Z,14.84
2019-05-29T08:13:50.118Z,14.95
2019-05-29T08:14:50.179Z,14.88
2019-05-29T08:15:57.591Z,14.95
2019-05-29T08:16:50.206Z,14.94
2019-05-29T08:17:50.136Z,14.86
2019-05-29T08:18:52.480Z,14.77
2019-05-29T08:20:05.387Z,14.72
2019-05-29T08:20:50.351Z,14.72
2019-05-29T08:21:48.842Z,14.72
2019-05-29T08:22:48.854Z,14.78
2019-05-29T08:23:48.812Z,14.69
2019-05-29T08:24:49.507Z,14.65
2019-05-29T08:25:49.654Z,14.50
2019-05-29T08:26:48.961Z,14.52
2019-05-29T08:27:49.001Z,14.57
2019-05-29T08:28:48.908Z,14.61
2019-05-29T08:29:48.890Z,14.64
2019-05-29T08:30:54.357Z,14.70
2019-05-29T08:31:50.918Z,14.83
2019-05-29T08:32:49.243Z,14.86
2019-05-29T08:33:48.989Z,14.91
2019-05-29T08:34:49.095Z,14.84
2019-05-29T08:35:57.882Z,14.78
2019-05-29T08:37:05.901Z,14.81
2019-05-29T08:37:49.674Z,14.75
2019-05-29T08:38:49.312Z,14.80
2019-05-29T08:39:49.544Z,14.88
2019-05-29T08:40:49.551Z,14.86
2019-05-29T08:42:19.579Z,14.94
2019-05-29T08:42:49.613Z,15.06
2019-05-29T08:43:48.585Z,15.09
2019-05-29T08:44:50.056Z,15.14
2019-05-29T08:45:49.711Z,15.27
2019-05-29T08:47:06.379Z,15.44
2019-05-29T08:47:49.799Z,15.51
2019-05-29T08:48:49.881Z,15.59
2019-05-29T08:49:51.637Z,15.80
2019-05-29T08:50:49.943Z,15.89
2019-05-29T08:51:48.503Z,15.80
2019-05-29T08:52:48.492Z,15.87
2019-05-29T08:53:48.869Z,15.76
2019-05-29T08:54:48.476Z,15.68
2019-05-29T08:55:48.932Z,15.65
2019-05-29T08:56:48.498Z,15.62
2019-05-29T08:57:48.545Z,15.72
2019-05-29T08:58:48.470Z,15.72
2019-05-29T08:59:48.508Z,15.68
2019-05-29T09:00:51.872Z,15.74
2019-05-29T09:01:52.311Z,15.78
2019-05-29T09:02:49.310Z,15.74
2019-05-29T09:03:48.915Z,15.75
2019-05-29T09:04:49.857Z,15.84
2019-05-29T09:06:06.143Z,15.90
2019-05-29T09:06:49.338Z,15.96
2019-05-29T09:07:49.922Z,15.94
2019-05-29T09:08:49.913Z,16.05
2019-05-29T09:09:49.110Z,16.01
2019-05-29T09:10:49.476Z,16.00
2019-05-29T09:11:49.930Z,16.02
2019-05-29T09:12:56.909Z,15.96
2019-05-29T09:13:49.260Z,15.93
2019-05-29T09:14:48.350Z,16.08
2019-05-29T09:15:48.230Z,16.08
2019-05-29T09:16:48.242Z,15.97
2019-05-29T09:17:48.234Z,16.04
2019-05-29T09:18:48.213Z,16.08
2019-05-29T09:19:48.294Z,16.12
2019-05-29T09:21:01.694Z,16.14
2019-05-29T09:21:49.170Z,16.08
2019-05-29T09:22:48.163Z,16.05
2019-05-29T09:23:48.171Z,16.07
2019-05-29T09:24:48.139Z,16.02
2019-05-29T09:25:48.124Z,16.05
2019-05-29T09:26:48.116Z,16.00
2019-05-29T09:27:48.106Z,16.05
2019-05-29T09:28:48.119Z,16.07
2019-05-29T09:29:48.079Z,16.07
2019-05-29T09:30:48.168Z,16.05
2019-05-29T09:31:48.054Z,16.02
2019-05-29T09:32:51.484Z,16.11
2019-05-29T09:33:48.046Z,16.07
2019-05-29T09:34:48.024Z,16.20
2019-05-29T09:35:48.012Z,16.25
2019-05-29T09:36:48.135Z,16.25
2019-05-29T09:37:47.990Z,16.24
2019-05-29T09:38:48.203Z,16.05
2019-05-29T09:39:47.964Z,16.05
2019-05-29T09:40:47.957Z,16.02
2019-05-29T09:41:47.949Z,16.09
2019-05-29T09:42:47.947Z,16.05
2019-05-29T09:43:58.294Z,15.89
2019-05-29T09:44:48.918Z,16.00
2019-05-29T09:45:47.902Z,16.05
2019-05-29T09:46:47.892Z,16.20
2019-05-29T09:47:47.875Z,16.38
2019-05-29T09:48:50.089Z,16.39
2019-05-29T09:49:47.867Z,16.60
2019-05-29T09:50:50.445Z,16.67
2019-05-29T09:51:47.849Z,16.75
2019-05-29T09:52:47.821Z,16.76
2019-05-29T09:53:47.919Z,16.66
2019-05-29T09:54:47.819Z,16.60
2019-05-29T09:55:47.804Z,16.56
2019-05-29T09:56:47.777Z,16.34
2019-05-29T09:57:47.778Z,16.30
2019-05-29T09:58:47.760Z,16.17
2019-05-29T09:59:47.750Z,16.17
2019-05-29T10:00:47.729Z,16.38
2019-05-29T10:01:47.723Z,16.27
2019-05-29T10:02:47.716Z,16.34
2019-05-29T10:03:47.707Z,16.21
2019-05-29T10:04:47.740Z,16.21
2019-05-29T10:05:47.693Z,16.23
2019-05-29T10:06:47.666Z,16.25
2019-05-29T10:07:47.658Z,16.15
2019-05-29T10:08:47.645Z,16.21
2019-05-29T10:09:47.641Z,16.15
2019-05-29T10:10:47.663Z,16.20
2019-05-29T10:11:47.613Z,16.39
2019-05-29T10:12:47.594Z,16.45
2019-05-29T10:13:47.594Z,16.60
2019-05-29T10:14:51.077Z,16.83
2019-05-29T10:15:47.576Z,16.85
2019-05-29T10:16:47.563Z,17.11
2019-05-29T10:17:47.559Z,17.30
2019-05-29T10:18:47.538Z,17.33
2019-05-29T10:19:47.526Z,17.30
2019-05-29T10:20:47.523Z,17.36
2019-05-29T10:21:47.502Z,17.21
2019-05-29T10:22:47.490Z,17.03
2019-05-29T10:23:47.478Z,16.97
2019-05-29T10:24:47.471Z,17.14
2019-05-29T10:25:47.451Z,17.19
2019-05-29T10:26:47.445Z,17.16
2019-05-29T10:27:47.436Z,17.31
2019-05-29T10:29:02.277Z,17.36
2019-05-29T10:29:51.431Z,17.22
2019-05-29T10:30:48.318Z,17.22
2019-05-29T10:31:49.213Z,17.26
2019-05-29T10:32:48.193Z,17.63
2019-05-29T10:33:48.215Z,18.50
2019-05-29T10:34:48.466Z,19.94
2019-05-29T10:35:49.688Z,21.04
2019-05-29T10:36:50.406Z,20.17
2019-05-29T10:37:48.663Z,19.14
2019-05-29T10:38:48.372Z,18.52
2019-05-29T10:39:48.792Z,18.35
2019-05-29T10:41:00.550Z,18.88
2019-05-29T10:41:48.852Z,21.65
2019-05-29T10:42:47.265Z,23.87
2019-05-29T10:43:47.253Z,25.77
2019-05-29T10:44:47.256Z,27.40
2019-05-29T10:45:48.015Z,27.54
2019-05-29T10:46:48.379Z,28.46
2019-05-29T10:47:47.480Z,28.52
2019-05-29T10:48:49.283Z,26.84
2019-05-29T10:49:48.199Z,25.70
2019-05-29T10:50:50.479Z,24.57
2019-05-29T10:52:02.033Z,23.38
2019-05-29T10:52:48.163Z,22.17
2019-05-29T10:53:49.582Z,23.66
2019-05-29T10:54:48.133Z,25.24
2019-05-29T10:55:48.499Z,26.21
2019-05-29T10:56:48.645Z,26.99
2019-05-29T10:57:47.117Z,27.32
2019-05-29T10:58:52.448Z,27.97
2019-05-29T10:59:48.750Z,28.78
2019-05-29T11:00:47.171Z,29.28
2019-05-29T11:01:47.215Z,29.97
2019-05-29T11:02:48.224Z,30.34
2019-05-29T11:03:47.320Z,29.71
2019-05-29T11:04:51.566Z,30.49
2019-05-29T11:05:48.040Z,31.86
2019-05-29T11:06:48.026Z,32.88
2019-05-29T11:07:47.663Z,31.29
2019-05-29T11:08:47.997Z,29.85
2019-05-29T11:09:48.456Z,28.77
2019-05-29T11:10:47.906Z,28.19
2019-05-29T11:11:48.253Z,28.39
2019-05-29T11:12:48.318Z,27.60
2019-05-29T11:13:46.956Z,26.77
2019-05-29T11:14:46.952Z,28.78
2019-05-29T11:15:46.949Z,30.54
2019-05-29T11:16:47.119Z,31.78
2019-05-29T11:17:47.193Z,31.99
2019-05-29T11:18:47.521Z,32.14
2019-05-29T11:19:47.194Z,32.28
2019-05-29T11:20:47.236Z,31.75
2019-05-29T11:21:48.162Z,31.91
2019-05-29T11:22:47.518Z,32.38
2019-05-29T11:23:47.730Z,32.84
2019-05-29T11:24:47.976Z,32.77
2019-05-29T11:25:47.859Z,32.93
2019-05-29T11:26:48.268Z,32.63
2019-05-29T11:27:48.360Z,32.11
2019-05-29T11:28:48.241Z,31.99
2019-05-29T11:29:46.822Z,32.50
2019-05-29T11:30:46.849Z,32.96
2019-05-29T11:31:46.810Z,33.37
2019-05-29T11:32:49.641Z,33.93
2019-05-29T11:33:46.819Z,34.40
2019-05-29T11:34:46.777Z,35.14
2019-05-29T11:35:57.877Z,35.75
2019-05-29T11:36:47.779Z,36.27
2019-05-29T11:37:46.807Z,35.77
2019-05-29T11:38:46.753Z,35.26
2019-05-29T11:39:46.743Z,34.19
2019-05-29T11:40:46.793Z,34.52
2019-05-29T11:41:46.759Z,34.59
2019-05-29T11:42:46.738Z,34.49
2019-05-29T11:43:46.725Z,34.77
2019-05-29T11:44:46.707Z,32.56
2019-05-29T11:45:46.708Z,30.88
2019-05-29T11:46:46.696Z,29.53
2019-05-29T11:47:46.699Z,28.73
2019-05-29T11:48:46.682Z,29.42
2019-05-29T11:49:46.670Z,28.31
2019-05-29T11:50:46.673Z,29.34
2019-05-29T11:51:46.650Z,30.46
2019-05-29T11:52:46.642Z,31.50
2019-05-29T11:53:46.635Z,32.14
2019-05-29T11:54:46.631Z,32.87
2019-05-29T11:55:46.630Z,33.65
2019-05-29T11:56:46.619Z,34.08
2019-05-29T11:57:46.605Z,33.61
2019-05-29T11:58:46.606Z,34.10
2019-05-29T11:59:46.591Z,34.81
2019-05-29T12:00:46.577Z,35.14
2019-05-29T12:01:50.069Z,33.38
2019-05-29T12:02:46.566Z,33.03
2019-05-29T12:04:07.874Z,32.43
2019-05-29T12:04:47.556Z,32.38
2019-05-29T12:05:46.548Z,33.07
2019-05-29T12:06:46.544Z,33.23
2019-05-29T12:07:46.533Z,33.71
2019-05-29T12:08:46.521Z,32.70
2019-05-29T12:09:46.512Z,33.09
2019-05-29T12:10:46.508Z,33.50
2019-05-29T12:11:46.517Z,33.88
2019-05-29T12:12:46.498Z,34.31
2019-05-29T12:13:46.489Z,35.10
2019-05-29T12:15:00.323Z,35.65
2019-05-29T12:15:47.470Z,35.93
2019-05-29T12:16:46.494Z,35.90
2019-05-29T12:17:46.499Z,35.90
2019-05-29T12:18:46.454Z,35.15
2019-05-29T12:19:46.445Z,33.21
2019-05-29T12:20:46.442Z,30.99
2019-05-29T12:21:46.437Z,29.36
2019-05-29T12:23:10.946Z,28.40
2019-05-29T12:23:47.412Z,27.66
2019-05-29T12:24:46.410Z,27.10
2019-05-29T12:25:46.402Z,26.57
2019-05-29T12:26:46.396Z,27.29
2019-05-29T12:27:46.381Z,26.77
2019-05-29T12:28:46.385Z,26.17
2019-05-29T12:29:46.362Z,27.12
2019-05-29T12:30:46.364Z,27.87
2019-05-29T12:31:46.356Z,28.81
2019-05-29T12:32:46.334Z,29.02
2019-05-29T12:33:46.327Z,29.49
2019-05-29T12:34:53.629Z,30.08
2019-05-29T12:35:50.194Z,30.69
2019-05-29T12:36:46.352Z,31.23
2019-05-29T12:37:46.303Z,31.20
2019-05-29T12:38:46.299Z,30.86
2019-05-29T12:39:46.285Z,30.82
2019-05-29T12:40:46.286Z,30.83
2019-05-29T12:41:46.319Z,30.67
2019-05-29T12:42:46.247Z,31.10
2019-05-29T12:43:46.238Z,31.36
2019-05-29T12:44:46.236Z,31.61
2019-05-29T12:45:46.224Z,31.44
2019-05-29T12:46:46.231Z,31.13
2019-05-29T12:47:46.206Z,30.89
2019-05-29T12:48:46.214Z,30.46
2019-05-29T12:49:46.199Z,30.67
2019-05-29T12:50:46.191Z,30.65
2019-05-29T12:51:46.187Z,30.22
2019-05-29T12:52:46.177Z,30.08